sensor_id;sensor_type;location;lat;lon;timestamp;P1;durP1;ratioP1;P2;durP2;ratioP2
7340;SDS011;6870;50.944;6.932;2022-07-29T00:01:16;1.97;;;1.10;;
7340;SDS011;6870;50.944;6.932;2022-07-29T00:03:45;1.20;;;1.10;;
7340;SDS011;6870;50.944;6.932;2022-07-29T00:06:13;3.33;;;1.30;;
7340;SDS011;6870;50.944;6.932;2022-07-29T00:08:42;1.70;;;1.33;;
7340;SDS011;6870;50.944;6.932;2022-07-29T00:11:11;1.80;;;1.50;;
7340;SDS011;6870;50.944;6.932;2022-07-29T00:13:39;1.60;;;0.97;;
7340;SDS011;6870;50.944;6.932;2022-07-29T00:16:13;1.37;;;0.83;;
7340;SDS011;6870;50.944;6.932;2022-07-29T00:18:41;1.93;;;1.20;;
7340;SDS011;6870;50.944;6.932;2022-07-29T00:21:09;12.57;;;2.40;;
7340;SDS011;6870;50.944;6.932;2022-07-29T00:23:37;2.60;;;1.23;;
7340;SDS011;6870;50.944;6.932;2022-07-29T00:26:05;5.33;;;1.00;;
7340;SDS011;6870;50.944;6.932;2022-07-29T00:28:35;2.30;;;1.20;;
7340;SDS011;6870;50.944;6.932;2022-07-29T00:31:03;1.40;;;1.10;;
7340;SDS011;6870;50.944;6.932;2022-07-29T00:33:31;2.20;;;1.07;;
7340;SDS011;6870;50.944;6.932;2022-07-29T00:35:59;4.33;;;1.00;;
7340;SDS011;6870;50.944;6.932;2022-07-29T00:38:26;1.73;;;1.37;;
7340;SDS011;6870;50.944;6.932;2022-07-29T00:40:54;3.20;;;1.40;;
7340;SDS011;6870;50.944;6.932;2022-07-29T00:43:22;2.17;;;1.53;;
7340;SDS011;6870;50.944;6.932;2022-07-29T00:45:52;3.17;;;1.13;;
7340;SDS011;6870;50.944;6.932;2022-07-29T00:48:20;3.77;;;1.83;;
7340;SDS011;6870;50.944;6.932;2022-07-29T00:50:48;3.37;;;1.40;;
7340;SDS011;6870;50.944;6.932;2022-07-29T00:53:17;2.00;;;1.00;;
7340;SDS011;6870;50.944;6.932;2022-07-29T00:55:47;1.97;;;1.60;;
7340;SDS011;6870;50.944;6.932;2022-07-29T00:58:17;2.70;;;1.13;;
7340;SDS011;6870;50.944;6.932;2022-07-29T01:00:45;1.83;;;1.20;;
7340;SDS011;6870;50.944;6.932;2022-07-29T01:03:15;1.50;;;1.03;;
7340;SDS011;6870;50.944;6.932;2022-07-29T01:05:44;1.90;;;1.27;;
7340;SDS011;6870;50.944;6.932;2022-07-29T01:08:17;2.40;;;1.30;;
7340;SDS011;6870;50.944;6.932;2022-07-29T01:10:46;2.10;;;1.10;;
7340;SDS011;6870;50.944;6.932;2022-07-29T01:13:15;1.87;;;1.03;;
7340;SDS011;6870;50.944;6.932;2022-07-29T01:15:44;1.63;;;1.00;;
7340;SDS011;6870;50.944;6.932;2022-07-29T01:18:20;4.07;;;1.70;;
7340;SDS011;6870;50.944;6.932;2022-07-29T01:21:04;1.60;;;1.20;;
7340;SDS011;6870;50.944;6.932;2022-07-29T01:24:11;2.23;;;1.13;;
7340;SDS011;6870;50.944;6.932;2022-07-29T01:26:58;1.37;;;0.83;;
7340;SDS011;6870;50.944;6.932;2022-07-29T01:29:35;1.93;;;1.30;;
7340;SDS011;6870;50.944;6.932;2022-07-29T01:32:10;1.30;;;1.03;;
7340;SDS011;6870;50.944;6.932;2022-07-29T01:34:54;3.57;;;0.83;;
7340;SDS011;6870;50.944;6.932;2022-07-29T01:37:28;1.30;;;1.20;;
7340;SDS011;6870;50.944;6.932;2022-07-29T01:40:02;1.53;;;1.20;;
7340;SDS011;6870;50.944;6.932;2022-07-29T01:42:34;2.07;;;1.00;;
7340;SDS011;6870;50.944;6.932;2022-07-29T01:45:08;1.23;;;0.93;;
7340;SDS011;6870;50.944;6.932;2022-07-29T01:47:42;1.40;;;1.00;;
7340;SDS011;6870;50.944;6.932;2022-07-29T01:50:14;1.30;;;0.97;;
7340;SDS011;6870;50.944;6.932;2022-07-29T01:52:46;1.97;;;1.27;;
7340;SDS011;6870;50.944;6.932;2022-07-29T01:55:22;2.30;;;0.90;;
7340;SDS011;6870;50.944;6.932;2022-07-29T01:57:55;2.00;;;1.13;;
7340;SDS011;6870;50.944;6.932;2022-07-29T02:00:27;1.20;;;0.83;;
7340;SDS011;6870;50.944;6.932;2022-07-29T02:02:58;1.10;;;0.80;;
7340;SDS011;6870;50.944;6.932;2022-07-29T02:05:28;2.03;;;1.00;;
7340;SDS011;6870;50.944;6.932;2022-07-29T02:08:00;1.57;;;1.13;;
7340;SDS011;6870;50.944;6.932;2022-07-29T02:10:30;2.03;;;1.10;;
7340;SDS011;6870;50.944;6.932;2022-07-29T02:13:00;2.13;;;1.40;;
7340;SDS011;6870;50.944;6.932;2022-07-29T02:15:32;1.87;;;1.07;;
7340;SDS011;6870;50.944;6.932;2022-07-29T02:18:02;2.50;;;1.40;;
7340;SDS011;6870;50.944;6.932;2022-07-29T02:20:33;1.37;;;1.10;;
7340;SDS011;6870;50.944;6.932;2022-07-29T02:23:03;2.27;;;1.30;;
7340;SDS011;6870;50.944;6.932;2022-07-29T02:25:33;1.90;;;1.07;;
7340;SDS011;6870;50.944;6.932;2022-07-29T02:28:04;2.30;;;1.00;;
7340;SDS011;6870;50.944;6.932;2022-07-29T02:30:35;3.27;;;1.20;;
7340;SDS011;6870;50.944;6.932;2022-07-29T02:33:07;1.10;;;0.90;;
7340;SDS011;6870;50.944;6.932;2022-07-29T02:35:37;4.20;;;1.23;;
7340;SDS011;6870;50.944;6.932;2022-07-29T02:38:08;1.43;;;1.03;;
7340;SDS011;6870;50.944;6.932;2022-07-29T02:40:58;1.57;;;1.00;;
7340;SDS011;6870;50.944;6.932;2022-07-29T02:43:29;1.03;;;0.93;;
7340;SDS011;6870;50.944;6.932;2022-07-29T02:46:00;3.40;;;1.37;;
7340;SDS011;6870;50.944;6.932;2022-07-29T02:48:55;2.00;;;1.07;;
7340;SDS011;6870;50.944;6.932;2022-07-29T02:51:27;1.10;;;0.80;;
7340;SDS011;6870;50.944;6.932;2022-07-29T02:54:10;1.90;;;0.90;;
7340;SDS011;6870;50.944;6.932;2022-07-29T02:56:48;1.60;;;1.30;;
7340;SDS011;6870;50.944;6.932;2022-07-29T02:59:20;2.33;;;0.90;;
7340;SDS011;6870;50.944;6.932;2022-07-29T03:01:55;1.80;;;1.20;;
7340;SDS011;6870;50.944;6.932;2022-07-29T03:04:26;1.37;;;0.93;;
7340;SDS011;6870;50.944;6.932;2022-07-29T03:06:56;4.60;;;1.13;;
7340;SDS011;6870;50.944;6.932;2022-07-29T03:09:26;1.93;;;0.90;;
7340;SDS011;6870;50.944;6.932;2022-07-29T03:11:55;2.47;;;1.67;;
7340;SDS011;6870;50.944;6.932;2022-07-29T03:14:25;1.00;;;0.90;;
7340;SDS011;6870;50.944;6.932;2022-07-29T03:16:54;1.63;;;1.17;;
7340;SDS011;6870;50.944;6.932;2022-07-29T03:19:23;1.73;;;1.27;;
7340;SDS011;6870;50.944;6.932;2022-07-29T03:21:51;2.30;;;1.50;;
7340;SDS011;6870;50.944;6.932;2022-07-29T03:24:27;1.87;;;1.13;;
7340;SDS011;6870;50.944;6.932;2022-07-29T03:26:58;4.63;;;1.27;;
7340;SDS011;6870;50.944;6.932;2022-07-29T03:29:26;1.67;;;1.13;;
7340;SDS011;6870;50.944;6.932;2022-07-29T03:32:01;4.93;;;1.40;;
7340;SDS011;6870;50.944;6.932;2022-07-29T03:34:33;6.10;;;1.57;;
7340;SDS011;6870;50.944;6.932;2022-07-29T03:37:01;2.27;;;1.10;;
7340;SDS011;6870;50.944;6.932;2022-07-29T03:39:31;2.07;;;1.37;;
7340;SDS011;6870;50.944;6.932;2022-07-29T03:42:03;5.23;;;1.40;;
7340;SDS011;6870;50.944;6.932;2022-07-29T03:44:35;3.07;;;1.10;;
7340;SDS011;6870;50.944;6.932;2022-07-29T03:47:06;3.40;;;1.10;;
7340;SDS011;6870;50.944;6.932;2022-07-29T03:49:37;7.43;;;1.60;;
7340;SDS011;6870;50.944;6.932;2022-07-29T03:52:06;2.50;;;1.43;;
7340;SDS011;6870;50.944;6.932;2022-07-29T03:54:35;2.00;;;1.20;;
7340;SDS011;6870;50.944;6.932;2022-07-29T03:57:03;4.23;;;1.53;;
7340;SDS011;6870;50.944;6.932;2022-07-29T03:59:33;2.73;;;1.87;;
7340;SDS011;6870;50.944;6.932;2022-07-29T04:02:02;3.27;;;1.20;;
7340;SDS011;6870;50.944;6.932;2022-07-29T04:04:33;4.80;;;1.67;;
7340;SDS011;6870;50.944;6.932;2022-07-29T04:07:03;10.03;;;1.07;;
7340;SDS011;6870;50.944;6.932;2022-07-29T04:09:31;2.93;;;1.10;;
7340;SDS011;6870;50.944;6.932;2022-07-29T04:11:59;3.00;;;1.40;;
7340;SDS011;6870;50.944;6.932;2022-07-29T04:14:30;1.67;;;1.00;;
7340;SDS011;6870;50.944;6.932;2022-07-29T04:16:58;4.17;;;2.73;;
7340;SDS011;6870;50.944;6.932;2022-07-29T04:19:27;3.03;;;1.23;;
7340;SDS011;6870;50.944;6.932;2022-07-29T04:21:57;2.40;;;1.07;;
7340;SDS011;6870;50.944;6.932;2022-07-29T04:24:26;4.00;;;1.17;;
7340;SDS011;6870;50.944;6.932;2022-07-29T04:26:54;2.43;;;1.20;;
7340;SDS011;6870;50.944;6.932;2022-07-29T04:29:22;2.83;;;1.47;;
7340;SDS011;6870;50.944;6.932;2022-07-29T04:31:50;1.60;;;1.00;;
7340;SDS011;6870;50.944;6.932;2022-07-29T04:34:18;2.13;;;1.10;;
7340;SDS011;6870;50.944;6.932;2022-07-29T04:36:47;3.30;;;1.27;;
7340;SDS011;6870;50.944;6.932;2022-07-29T04:39:16;1.70;;;1.20;;
7340;SDS011;6870;50.944;6.932;2022-07-29T04:41:48;2.03;;;1.10;;
7340;SDS011;6870;50.944;6.932;2022-07-29T04:44:20;1.67;;;1.10;;
7340;SDS011;6870;50.944;6.932;2022-07-29T04:46:54;4.13;;;0.90;;
7340;SDS011;6870;50.944;6.932;2022-07-29T04:49:23;3.80;;;1.67;;
7340;SDS011;6870;50.944;6.932;2022-07-29T04:51:52;2.20;;;0.90;;
7340;SDS011;6870;50.944;6.932;2022-07-29T04:54:21;3.17;;;1.00;;
7340;SDS011;6870;50.944;6.932;2022-07-29T04:56:51;2.37;;;1.10;;
7340;SDS011;6870;50.944;6.932;2022-07-29T04:59:19;2.80;;;1.30;;
7340;SDS011;6870;50.944;6.932;2022-07-29T05:01:47;1.77;;;0.90;;
7340;SDS011;6870;50.944;6.932;2022-07-29T05:04:16;2.37;;;0.90;;
7340;SDS011;6870;50.944;6.932;2022-07-29T05:06:45;2.37;;;1.30;;
7340;SDS011;6870;50.944;6.932;2022-07-29T05:09:13;2.03;;;1.00;;
7340;SDS011;6870;50.944;6.932;2022-07-29T05:11:42;1.30;;;1.00;;
7340;SDS011;6870;50.944;6.932;2022-07-29T05:14:10;2.20;;;1.30;;
7340;SDS011;6870;50.944;6.932;2022-07-29T05:16:39;1.50;;;0.90;;
7340;SDS011;6870;50.944;6.932;2022-07-29T05:19:08;4.10;;;1.13;;
7340;SDS011;6870;50.944;6.932;2022-07-29T05:21:40;1.50;;;1.00;;
7340;SDS011;6870;50.944;6.932;2022-07-29T05:24:08;3.23;;;1.23;;
7340;SDS011;6870;50.944;6.932;2022-07-29T05:26:36;4.20;;;1.10;;
7340;SDS011;6870;50.944;6.932;2022-07-29T05:29:06;4.87;;;1.73;;
7340;SDS011;6870;50.944;6.932;2022-07-29T05:31:54;2.00;;;1.00;;
7340;SDS011;6870;50.944;6.932;2022-07-29T05:34:22;1.43;;;0.97;;
7340;SDS011;6870;50.944;6.932;2022-07-29T05:36:51;3.63;;;1.00;;
7340;SDS011;6870;50.944;6.932;2022-07-29T05:39:19;1.67;;;1.40;;
7340;SDS011;6870;50.944;6.932;2022-07-29T05:42:08;2.50;;;0.80;;
7340;SDS011;6870;50.944;6.932;2022-07-29T05:44:38;1.63;;;0.93;;
7340;SDS011;6870;50.944;6.932;2022-07-29T05:47:06;4.57;;;1.83;;
7340;SDS011;6870;50.944;6.932;2022-07-29T05:49:34;2.80;;;0.97;;
7340;SDS011;6870;50.944;6.932;2022-07-29T05:52:03;1.27;;;0.90;;
7340;SDS011;6870;50.944;6.932;2022-07-29T05:54:31;1.47;;;1.03;;
7340;SDS011;6870;50.944;6.932;2022-07-29T05:56:59;2.20;;;1.00;;
7340;SDS011;6870;50.944;6.932;2022-07-29T05:59:28;1.20;;;0.83;;
7340;SDS011;6870;50.944;6.932;2022-07-29T06:01:57;1.80;;;1.13;;
7340;SDS011;6870;50.944;6.932;2022-07-29T06:04:25;3.20;;;1.10;;
7340;SDS011;6870;50.944;6.932;2022-07-29T06:06:53;3.47;;;1.30;;
7340;SDS011;6870;50.944;6.932;2022-07-29T06:09:21;1.70;;;1.00;;
7340;SDS011;6870;50.944;6.932;2022-07-29T06:11:50;6.50;;;1.37;;
7340;SDS011;6870;50.944;6.932;2022-07-29T06:14:18;7.37;;;2.30;;
7340;SDS011;6870;50.944;6.932;2022-07-29T06:16:46;2.83;;;1.30;;
7340;SDS011;6870;50.944;6.932;2022-07-29T06:19:16;12.33;;;1.80;;
7340;SDS011;6870;50.944;6.932;2022-07-29T06:21:45;7.20;;;1.70;;
7340;SDS011;6870;50.944;6.932;2022-07-29T06:24:14;5.77;;;1.70;;
7340;SDS011;6870;50.944;6.932;2022-07-29T06:26:44;6.63;;;1.50;;
7340;SDS011;6870;50.944;6.932;2022-07-29T06:29:12;2.30;;;1.50;;
7340;SDS011;6870;50.944;6.932;2022-07-29T06:31:40;2.67;;;1.80;;
7340;SDS011;6870;50.944;6.932;2022-07-29T06:34:08;2.50;;;1.60;;
7340;SDS011;6870;50.944;6.932;2022-07-29T06:36:38;4.77;;;1.77;;
7340;SDS011;6870;50.944;6.932;2022-07-29T06:39:07;2.40;;;1.80;;
7340;SDS011;6870;50.944;6.932;2022-07-29T06:41:37;2.87;;;1.77;;
7340;SDS011;6870;50.944;6.932;2022-07-29T06:44:05;5.33;;;1.67;;
7340;SDS011;6870;50.944;6.932;2022-07-29T06:46:33;6.10;;;2.50;;
7340;SDS011;6870;50.944;6.932;2022-07-29T06:49:02;4.83;;;1.90;;
7340;SDS011;6870;50.944;6.932;2022-07-29T06:51:31;4.53;;;1.97;;
7340;SDS011;6870;50.944;6.932;2022-07-29T06:54:00;4.90;;;2.10;;
7340;SDS011;6870;50.944;6.932;2022-07-29T06:56:31;2.83;;;1.10;;
7340;SDS011;6870;50.944;6.932;2022-07-29T06:59:05;5.17;;;1.73;;
7340;SDS011;6870;50.944;6.932;2022-07-29T07:01:35;4.20;;;1.90;;
7340;SDS011;6870;50.944;6.932;2022-07-29T07:04:04;7.43;;;2.03;;
7340;SDS011;6870;50.944;6.932;2022-07-29T07:06:32;6.37;;;2.10;;
7340;SDS011;6870;50.944;6.932;2022-07-29T07:09:02;4.63;;;1.73;;
7340;SDS011;6870;50.944;6.932;2022-07-29T07:11:31;6.63;;;2.10;;
7340;SDS011;6870;50.944;6.932;2022-07-29T07:13:59;4.03;;;1.30;;
7340;SDS011;6870;50.944;6.932;2022-07-29T07:16:29;5.57;;;1.70;;
7340;SDS011;6870;50.944;6.932;2022-07-29T07:18:58;4.60;;;1.87;;
7340;SDS011;6870;50.944;6.932;2022-07-29T07:21:26;5.03;;;1.80;;
7340;SDS011;6870;50.944;6.932;2022-07-29T07:23:56;2.20;;;1.87;;
7340;SDS011;6870;50.944;6.932;2022-07-29T07:26:26;5.60;;;2.40;;
7340;SDS011;6870;50.944;6.932;2022-07-29T07:28:55;3.83;;;1.87;;
7340;SDS011;6870;50.944;6.932;2022-07-29T07:31:23;5.33;;;2.20;;
7340;SDS011;6870;50.944;6.932;2022-07-29T07:33:51;3.03;;;1.70;;
7340;SDS011;6870;50.944;6.932;2022-07-29T07:36:20;4.90;;;2.30;;
7340;SDS011;6870;50.944;6.932;2022-07-29T07:38:48;4.10;;;2.00;;
7340;SDS011;6870;50.944;6.932;2022-07-29T07:41:17;10.53;;;2.63;;
7340;SDS011;6870;50.944;6.932;2022-07-29T07:47:46;6.17;;;2.37;;
7340;SDS011;6870;50.944;6.932;2022-07-29T07:50:14;7.10;;;2.63;;
7340;SDS011;6870;50.944;6.932;2022-07-29T07:52:48;12.33;;;2.60;;
7340;SDS011;6870;50.944;6.932;2022-07-29T07:55:18;7.27;;;2.43;;
7340;SDS011;6870;50.944;6.932;2022-07-29T07:57:47;4.30;;;1.60;;
7340;SDS011;6870;50.944;6.932;2022-07-29T08:00:15;4.00;;;1.57;;
7340;SDS011;6870;50.944;6.932;2022-07-29T08:02:49;6.57;;;3.07;;
7340;SDS011;6870;50.944;6.932;2022-07-29T08:05:17;6.23;;;2.73;;
7340;SDS011;6870;50.944;6.932;2022-07-29T08:07:46;2.93;;;2.27;;
7340;SDS011;6870;50.944;6.932;2022-07-29T08:10:14;4.80;;;2.33;;
7340;SDS011;6870;50.944;6.932;2022-07-29T08:13:05;7.93;;;2.37;;
7340;SDS011;6870;50.944;6.932;2022-07-29T08:15:35;9.83;;;2.60;;
7340;SDS011;6870;50.944;6.932;2022-07-29T08:18:04;8.33;;;3.50;;
7340;SDS011;6870;50.944;6.932;2022-07-29T08:20:34;7.33;;;3.17;;
7340;SDS011;6870;50.944;6.932;2022-07-29T08:23:04;13.80;;;3.60;;
7340;SDS011;6870;50.944;6.932;2022-07-29T08:25:35;5.97;;;2.63;;
7340;SDS011;6870;50.944;6.932;2022-07-29T08:28:05;10.83;;;3.23;;
7340;SDS011;6870;50.944;6.932;2022-07-29T08:30:34;4.53;;;3.07;;
7340;SDS011;6870;50.944;6.932;2022-07-29T08:33:02;4.40;;;3.00;;
7340;SDS011;6870;50.944;6.932;2022-07-29T08:35:32;5.13;;;2.77;;
7340;SDS011;6870;50.944;6.932;2022-07-29T08:38:01;12.60;;;2.83;;
7340;SDS011;6870;50.944;6.932;2022-07-29T08:40:30;5.47;;;4.00;;
7340;SDS011;6870;50.944;6.932;2022-07-29T08:42:59;8.17;;;2.67;;
7340;SDS011;6870;50.944;6.932;2022-07-29T08:45:36;8.63;;;2.80;;
7340;SDS011;6870;50.944;6.932;2022-07-29T08:48:16;9.07;;;2.60;;
7340;SDS011;6870;50.944;6.932;2022-07-29T08:50:47;10.53;;;2.50;;
7340;SDS011;6870;50.944;6.932;2022-07-29T08:53:16;7.87;;;3.53;;
7340;SDS011;6870;50.944;6.932;2022-07-29T08:55:45;7.20;;;3.10;;
7340;SDS011;6870;50.944;6.932;2022-07-29T08:58:16;8.03;;;3.07;;
7340;SDS011;6870;50.944;6.932;2022-07-29T09:00:51;11.40;;;2.70;;
7340;SDS011;6870;50.944;6.932;2022-07-29T09:03:24;5.63;;;3.40;;
7340;SDS011;6870;50.944;6.932;2022-07-29T09:05:58;9.53;;;3.80;;
7340;SDS011;6870;50.944;6.932;2022-07-29T09:08:26;5.60;;;3.23;;
7340;SDS011;6870;50.944;6.932;2022-07-29T09:10:55;6.03;;;3.23;;
7340;SDS011;6870;50.944;6.932;2022-07-29T09:13:25;6.27;;;3.03;;
7340;SDS011;6870;50.944;6.932;2022-07-29T09:15:54;8.00;;;3.43;;
7340;SDS011;6870;50.944;6.932;2022-07-29T09:18:34;4.10;;;3.03;;
7340;SDS011;6870;50.944;6.932;2022-07-29T09:21:05;7.57;;;3.00;;
7340;SDS011;6870;50.944;6.932;2022-07-29T09:23:59;7.40;;;3.47;;
7340;SDS011;6870;50.944;6.932;2022-07-29T09:26:37;8.40;;;4.10;;
7340;SDS011;6870;50.944;6.932;2022-07-29T09:29:08;7.80;;;3.33;;
7340;SDS011;6870;50.944;6.932;2022-07-29T09:31:38;5.90;;;3.90;;
7340;SDS011;6870;50.944;6.932;2022-07-29T09:34:11;8.70;;;3.00;;
7340;SDS011;6870;50.944;6.932;2022-07-29T09:36:42;4.67;;;3.33;;
7340;SDS011;6870;50.944;6.932;2022-07-29T09:39:12;7.17;;;2.83;;
7340;SDS011;6870;50.944;6.932;2022-07-29T09:41:44;7.83;;;3.00;;
7340;SDS011;6870;50.944;6.932;2022-07-29T09:44:14;5.70;;;3.07;;
7340;SDS011;6870;50.944;6.932;2022-07-29T09:46:53;5.60;;;2.93;;
7340;SDS011;6870;50.944;6.932;2022-07-29T09:49:33;7.10;;;3.23;;
7340;SDS011;6870;50.944;6.932;2022-07-29T09:52:04;9.93;;;3.47;;
7340;SDS011;6870;50.944;6.932;2022-07-29T09:54:36;6.07;;;2.83;;
7340;SDS011;6870;50.944;6.932;2022-07-29T09:57:05;17.03;;;3.30;;
7340;SDS011;6870;50.944;6.932;2022-07-29T09:59:38;6.20;;;2.77;;
7340;SDS011;6870;50.944;6.932;2022-07-29T10:02:27;9.93;;;3.10;;
7340;SDS011;6870;50.944;6.932;2022-07-29T10:04:59;6.03;;;3.10;;
7340;SDS011;6870;50.944;6.932;2022-07-29T10:07:42;5.00;;;2.60;;
7340;SDS011;6870;50.944;6.932;2022-07-29T10:10:19;6.30;;;2.90;;
7340;SDS011;6870;50.944;6.932;2022-07-29T10:12:50;4.70;;;2.50;;
7340;SDS011;6870;50.944;6.932;2022-07-29T10:15:21;5.57;;;2.10;;
7340;SDS011;6870;50.944;6.932;2022-07-29T10:17:51;4.73;;;2.37;;
7340;SDS011;6870;50.944;6.932;2022-07-29T10:20:22;10.83;;;3.13;;
7340;SDS011;6870;50.944;6.932;2022-07-29T10:22:52;5.00;;;3.07;;
7340;SDS011;6870;50.944;6.932;2022-07-29T10:25:22;7.87;;;3.33;;
7340;SDS011;6870;50.944;6.932;2022-07-29T10:27:52;6.43;;;2.93;;
7340;SDS011;6870;50.944;6.932;2022-07-29T10:30:22;7.20;;;3.87;;
7340;SDS011;6870;50.944;6.932;2022-07-29T10:33:08;8.23;;;3.07;;
7340;SDS011;6870;50.944;6.932;2022-07-29T10:36:04;6.87;;;2.53;;
7340;SDS011;6870;50.944;6.932;2022-07-29T10:38:52;3.83;;;2.67;;
7340;SDS011;6870;50.944;6.932;2022-07-29T10:41:52;7.87;;;2.60;;
7340;SDS011;6870;50.944;6.932;2022-07-29T10:44:34;4.80;;;2.60;;
7340;SDS011;6870;50.944;6.932;2022-07-29T10:47:07;23.67;;;4.37;;
7340;SDS011;6870;50.944;6.932;2022-07-29T10:49:35;4.23;;;2.53;;
7340;SDS011;6870;50.944;6.932;2022-07-29T10:52:08;5.90;;;3.00;;
7340;SDS011;6870;50.944;6.932;2022-07-29T10:54:40;3.30;;;2.70;;
7340;SDS011;6870;50.944;6.932;2022-07-29T10:57:13;7.50;;;3.20;;
7340;SDS011;6870;50.944;6.932;2022-07-29T10:59:46;4.10;;;2.50;;
7340;SDS011;6870;50.944;6.932;2022-07-29T11:08:26;3.10;;;2.20;;
7340;SDS011;6870;50.944;6.932;2022-07-29T11:14:00;8.27;;;3.03;;
7340;SDS011;6870;50.944;6.932;2022-07-29T11:19:32;6.60;;;2.50;;
7340;SDS011;6870;50.944;6.932;2022-07-29T11:22:07;5.57;;;2.63;;
7340;SDS011;6870;50.944;6.932;2022-07-29T11:24:43;4.27;;;2.57;;
7340;SDS011;6870;50.944;6.932;2022-07-29T11:27:16;5.33;;;2.60;;
7340;SDS011;6870;50.944;6.932;2022-07-29T11:29:49;4.23;;;2.30;;
7340;SDS011;6870;50.944;6.932;2022-07-29T11:32:41;7.40;;;2.50;;
7340;SDS011;6870;50.944;6.932;2022-07-29T11:35:15;4.77;;;2.10;;
7340;SDS011;6870;50.944;6.932;2022-07-29T11:43:58;4.53;;;2.50;;
7340;SDS011;6870;50.944;6.932;2022-07-29T11:46:46;12.90;;;4.40;;
7340;SDS011;6870;50.944;6.932;2022-07-29T11:49:19;5.47;;;3.40;;
7340;SDS011;6870;50.944;6.932;2022-07-29T11:51:58;8.77;;;3.53;;
7340;SDS011;6870;50.944;6.932;2022-07-29T11:54:30;4.77;;;3.30;;
7340;SDS011;6870;50.944;6.932;2022-07-29T11:57:22;5.50;;;3.50;;
7340;SDS011;6870;50.944;6.932;2022-07-29T12:00:03;5.80;;;2.87;;
7340;SDS011;6870;50.944;6.932;2022-07-29T12:02:38;6.20;;;3.23;;
7340;SDS011;6870;50.944;6.932;2022-07-29T12:05:09;9.77;;;3.30;;
7340;SDS011;6870;50.944;6.932;2022-07-29T12:07:39;8.23;;;3.20;;
7340;SDS011;6870;50.944;6.932;2022-07-29T12:10:12;4.77;;;3.40;;
7340;SDS011;6870;50.944;6.932;2022-07-29T12:12:51;8.33;;;3.40;;
7340;SDS011;6870;50.944;6.932;2022-07-29T12:15:20;11.97;;;3.80;;
7340;SDS011;6870;50.944;6.932;2022-07-29T12:18:11;5.33;;;3.00;;
7340;SDS011;6870;50.944;6.932;2022-07-29T12:20:44;5.37;;;2.97;;
7340;SDS011;6870;50.944;6.932;2022-07-29T12:23:13;6.60;;;2.60;;
7340;SDS011;6870;50.944;6.932;2022-07-29T12:25:44;5.67;;;2.53;;
7340;SDS011;6870;50.944;6.932;2022-07-29T12:28:16;7.60;;;3.30;;
7340;SDS011;6870;50.944;6.932;2022-07-29T12:30:53;4.40;;;2.83;;
7340;SDS011;6870;50.944;6.932;2022-07-29T12:33:22;5.20;;;4.40;;
7340;SDS011;6870;50.944;6.932;2022-07-29T12:35:53;6.93;;;4.00;;
7340;SDS011;6870;50.944;6.932;2022-07-29T12:38:33;6.20;;;5.60;;
7340;SDS011;6870;50.944;6.932;2022-07-29T12:41:02;4.80;;;3.80;;
7340;SDS011;6870;50.944;6.932;2022-07-29T12:43:32;7.13;;;3.60;;
7340;SDS011;6870;50.944;6.932;2022-07-29T12:46:11;6.03;;;3.03;;
7340;SDS011;6870;50.944;6.932;2022-07-29T12:48:42;4.50;;;3.23;;
7340;SDS011;6870;50.944;6.932;2022-07-29T12:51:11;4.90;;;3.17;;
7340;SDS011;6870;50.944;6.932;2022-07-29T12:53:41;4.60;;;2.83;;
7340;SDS011;6870;50.944;6.932;2022-07-29T12:56:15;5.27;;;2.47;;
7340;SDS011;6870;50.944;6.932;2022-07-29T12:59:12;5.93;;;2.40;;
7340;SDS011;6870;50.944;6.932;2022-07-29T13:01:42;3.47;;;2.80;;
7340;SDS011;6870;50.944;6.932;2022-07-29T13:04:23;3.00;;;2.70;;
7340;SDS011;6870;50.944;6.932;2022-07-29T13:06:58;4.40;;;2.80;;
7340;SDS011;6870;50.944;6.932;2022-07-29T13:09:36;2.93;;;2.00;;
7340;SDS011;6870;50.944;6.932;2022-07-29T13:12:06;5.13;;;2.70;;
7340;SDS011;6870;50.944;6.932;2022-07-29T13:14:39;8.93;;;2.57;;
7340;SDS011;6870;50.944;6.932;2022-07-29T13:17:09;3.70;;;2.07;;
7340;SDS011;6870;50.944;6.932;2022-07-29T13:19:40;8.63;;;2.23;;
7340;SDS011;6870;50.944;6.932;2022-07-29T13:22:11;7.23;;;2.50;;
7340;SDS011;6870;50.944;6.932;2022-07-29T13:24:47;6.50;;;2.13;;
7340;SDS011;6870;50.944;6.932;2022-07-29T13:27:17;3.90;;;1.80;;
7340;SDS011;6870;50.944;6.932;2022-07-29T13:29:49;2.47;;;1.97;;
7340;SDS011;6870;50.944;6.932;2022-07-29T13:32:18;4.60;;;2.43;;
7340;SDS011;6870;50.944;6.932;2022-07-29T13:34:53;3.90;;;1.90;;
7340;SDS011;6870;50.944;6.932;2022-07-29T13:37:22;4.53;;;2.60;;
7340;SDS011;6870;50.944;6.932;2022-07-29T13:39:50;5.60;;;3.07;;
7340;SDS011;6870;50.944;6.932;2022-07-29T13:42:20;4.60;;;2.63;;
7340;SDS011;6870;50.944;6.932;2022-07-29T13:44:50;5.73;;;3.10;;
7340;SDS011;6870;50.944;6.932;2022-07-29T13:47:19;3.80;;;2.17;;
7340;SDS011;6870;50.944;6.932;2022-07-29T13:49:58;10.10;;;3.60;;
7340;SDS011;6870;50.944;6.932;2022-07-29T13:52:26;12.40;;;4.60;;
7340;SDS011;6870;50.944;6.932;2022-07-29T13:54:54;10.87;;;5.00;;
7340;SDS011;6870;50.944;6.932;2022-07-29T13:57:23;8.13;;;3.73;;
7340;SDS011;6870;50.944;6.932;2022-07-29T13:59:53;12.87;;;3.97;;
7340;SDS011;6870;50.944;6.932;2022-07-29T14:02:21;8.67;;;3.90;;
7340;SDS011;6870;50.944;6.932;2022-07-29T14:04:51;6.93;;;4.07;;
7340;SDS011;6870;50.944;6.932;2022-07-29T14:07:20;14.33;;;3.77;;
7340;SDS011;6870;50.944;6.932;2022-07-29T14:09:49;7.27;;;3.37;;
7340;SDS011;6870;50.944;6.932;2022-07-29T14:12:17;6.67;;;4.13;;
7340;SDS011;6870;50.944;6.932;2022-07-29T14:14:46;10.20;;;3.23;;
7340;SDS011;6870;50.944;6.932;2022-07-29T14:17:15;8.73;;;3.20;;
7340;SDS011;6870;50.944;6.932;2022-07-29T14:19:44;8.13;;;3.33;;
7340;SDS011;6870;50.944;6.932;2022-07-29T14:22:12;7.80;;;3.63;;
7340;SDS011;6870;50.944;6.932;2022-07-29T14:24:41;7.70;;;4.43;;
7340;SDS011;6870;50.944;6.932;2022-07-29T14:27:09;5.10;;;2.97;;
7340;SDS011;6870;50.944;6.932;2022-07-29T14:29:37;5.80;;;3.17;;
7340;SDS011;6870;50.944;6.932;2022-07-29T14:32:06;5.03;;;2.87;;
7340;SDS011;6870;50.944;6.932;2022-07-29T14:34:36;3.77;;;2.63;;
7340;SDS011;6870;50.944;6.932;2022-07-29T14:37:05;9.57;;;3.63;;
7340;SDS011;6870;50.944;6.932;2022-07-29T14:39:34;6.57;;;2.87;;
7340;SDS011;6870;50.944;6.932;2022-07-29T14:42:08;8.70;;;3.60;;
7340;SDS011;6870;50.944;6.932;2022-07-29T14:44:38;6.53;;;3.27;;
7340;SDS011;6870;50.944;6.932;2022-07-29T14:47:07;7.10;;;2.77;;
7340;SDS011;6870;50.944;6.932;2022-07-29T14:49:37;5.33;;;2.80;;
7340;SDS011;6870;50.944;6.932;2022-07-29T14:52:05;10.10;;;3.10;;
7340;SDS011;6870;50.944;6.932;2022-07-29T14:54:33;6.97;;;2.90;;
7340;SDS011;6870;50.944;6.932;2022-07-29T14:57:02;7.23;;;3.20;;
7340;SDS011;6870;50.944;6.932;2022-07-29T14:59:30;6.23;;;3.37;;
7340;SDS011;6870;50.944;6.932;2022-07-29T15:01:58;5.40;;;3.00;;
7340;SDS011;6870;50.944;6.932;2022-07-29T15:04:27;4.43;;;2.93;;
7340;SDS011;6870;50.944;6.932;2022-07-29T15:06:57;2.83;;;2.50;;
7340;SDS011;6870;50.944;6.932;2022-07-29T15:09:26;5.87;;;3.43;;
7340;SDS011;6870;50.944;6.932;2022-07-29T15:11:55;4.00;;;2.80;;
7340;SDS011;6870;50.944;6.932;2022-07-29T15:14:24;4.67;;;2.60;;
7340;SDS011;6870;50.944;6.932;2022-07-29T15:16:55;9.20;;;2.97;;
7340;SDS011;6870;50.944;6.932;2022-07-29T15:19:24;4.77;;;2.70;;
7340;SDS011;6870;50.944;6.932;2022-07-29T15:21:52;3.40;;;3.07;;
7340;SDS011;6870;50.944;6.932;2022-07-29T15:24:26;5.57;;;2.43;;
7340;SDS011;6870;50.944;6.932;2022-07-29T15:26:55;7.90;;;3.00;;
7340;SDS011;6870;50.944;6.932;2022-07-29T15:29:23;4.10;;;3.10;;
7340;SDS011;6870;50.944;6.932;2022-07-29T15:31:52;4.50;;;2.80;;
7340;SDS011;6870;50.944;6.932;2022-07-29T15:34:20;4.10;;;2.53;;
7340;SDS011;6870;50.944;6.932;2022-07-29T15:36:49;3.73;;;2.10;;
7340;SDS011;6870;50.944;6.932;2022-07-29T15:39:19;3.60;;;2.43;;
7340;SDS011;6870;50.944;6.932;2022-07-29T15:41:50;4.33;;;2.40;;
7340;SDS011;6870;50.944;6.932;2022-07-29T15:44:18;5.63;;;2.70;;
7340;SDS011;6870;50.944;6.932;2022-07-29T15:46:48;5.40;;;2.50;;
7340;SDS011;6870;50.944;6.932;2022-07-29T15:49:33;3.87;;;2.20;;
7340;SDS011;6870;50.944;6.932;2022-07-29T15:52:14;2.30;;;2.00;;
7340;SDS011;6870;50.944;6.932;2022-07-29T15:54:52;3.33;;;2.13;;
7340;SDS011;6870;50.944;6.932;2022-07-29T15:57:22;3.33;;;2.13;;
7340;SDS011;6870;50.944;6.932;2022-07-29T15:59:51;3.90;;;2.33;;
7340;SDS011;6870;50.944;6.932;2022-07-29T16:02:20;4.13;;;2.20;;
7340;SDS011;6870;50.944;6.932;2022-07-29T16:04:48;3.97;;;2.50;;